Pagrindinis puslapis
METAR-TAF:

METAR-TAF

Oro uostai :

Clinton-Burns Flat, Oklahoma, Jungtinės Amerikos Valstijos

platuma: 35-21-24N, ilguma: 099-12-13W, Aukštis: 585 m

Dabartinis oras

Ataskaita buvo paskelbta 50 minutes, ne 10:53 UTC
Vėjas 6 kt iš Šiaurės/Šiaurės Vakarų
Temperatūra 15°C
Drėgmė 82%
Slėgis 1023 hPa
Matomumas: 16.1 km
Giedras dangus

METAR: KCSM 291053Z AUTO 34006KT 10SM CLR 15/12 A3020 RMK AO2 SLP210 T01500122

Laikas: 06:43 (11:43 UTC)

Prognozė

Ataskaita buvo paskelbta 23 minutes, ne 11:20 UTC
Prognozė galioja nuo 29 metu 12 UTC su 30 metu 12 UTC
Vėjas 6 kt iš Šiaurės/Šiaurės Vakarų
Matomumas: 10 km
Giedras dangus
Nuo 29 metu 1800 UTC
Vėjas 7 kt iš Rytų
Matomumas: 10 km
Mažai debesys ne aukštis 15000 ft
Nuo 30 metu 0000 UTC
Vėjas 12 kt iš Pietryčių
Matomumas: 10 km
Išsisklaidę debesys ne aukštis 15000 ft

TAF: KCSM 291120Z 2912/3012 34006KT P6SM SKC FM291800 10007KT P6SM FEW150 FM300000 13012KT P6SM SCT150

Orai ataskaitas ir orų prognozės (METAR, TAF).

turimą stotys yra geltonos ir raudonos taškus žemėlapyje.

Perkelti pele per norėdami pamatyti stoties vardą.

Tada spustelėkite, norėdami matyti oro stebėjimo ir prognozės.

Norėdami pakeisti žemėlapį: spustelėkite ant žalios mygtukų su juodo kryžiaus žemyn,; žalią mygtuką su brūkšneliu, jei norite nutolinti; arba žalių rodyklių gretimoms žemėlapius.


METAR-TAF: